Time;durP1;ratioP1;P1;durP2;ratioP2;P2;SDS_P1;SDS_P2;PMS_P1;PMS_P2;Temp;Humidity;BMP_temperature;BMP_pressure;BME280_temperature;BME280_humidity;BME280_pressure;Samples;Min_cycle;Max_cycle;Signal;HPM_P1;HPM_P2
2022/03/06 00:00:22;;;;;;;17.48;4.47;;;;;;;;;;5078406;28;20033;-64
2022/03/06 00:02:49;;;;;;;24.25;5.07;;;;;;;;;;5079221;28;20405;-64
2022/03/06 00:05:17;;;;;;;20.50;5.05;;;;;;;;;;5079349;28;20032;-64
2022/03/06 00:07:44;;;;;;;15.55;3.95;;;;;;;;;;5079583;28;20021;-64
2022/03/06 00:10:12;;;;;;;18.05;4.40;;;;;;;;;;5079368;28;20020;-65
2022/03/06 00:12:40;;;;;;;20.20;4.85;;;;;;;;;;5079138;28;20175;-64
2022/03/06 00:15:07;;;;;;;27.75;5.60;;;;;;;;;;5077340;28;20112;-65
2022/03/06 00:17:35;;;;;;;21.13;6.13;;;;;;;;;;5078099;28;20182;-65
2022/03/06 00:20:08;;;;;;;21.95;5.70;;;;;;;;;;5077010;28;20071;-64
2022/03/06 00:22:36;;;;;;;23.73;7.50;;;;;;;;;;5076892;28;20396;-65
2022/03/06 00:25:05;;;;;;;26.90;6.50;;;;;;;;;;5076500;28;20032;-64
2022/03/06 00:27:32;;;;;;;24.90;7.88;;;;;;;;;;5076522;28;20067;-64
2022/03/06 00:30:00;;;;;;;27.58;7.63;;;;;;;;;;5076802;28;20047;-64
2022/03/06 00:32:27;;;;;;;26.92;10.52;;;;;;;;;;5076941;28;20107;-64
2022/03/06 00:34:55;;;;;;;36.42;11.13;;;;;;;;;;5076746;28;20075;-64
2022/03/06 00:37:22;;;;;;;23.58;10.07;;;;;;;;;;5076690;28;20030;-64
2022/03/06 00:39:50;;;;;;;29.27;12.57;;;;;;;;;;5076671;28;20060;-65
2022/03/06 00:42:18;;;;;;;28.02;11.15;;;;;;;;;;5076713;28;20036;-64
2022/03/06 00:44:45;;;;;;;29.05;10.88;;;;;;;;;;5076736;28;20484;-65
2022/03/06 00:47:13;;;;;;;28.98;11.20;;;;;;;;;;5078303;28;20036;-64
2022/03/06 00:49:40;;;;;;;29.85;9.93;;;;;;;;;;5078434;28;20429;-63
2022/03/06 00:52:08;;;;;;;32.00;11.85;;;;;;;;;;5078397;28;20028;-64
2022/03/06 00:54:36;;;;;;;34.53;10.13;;;;;;;;;;5078283;28;20025;-64
2022/03/06 00:57:03;;;;;;;33.95;10.65;;;;;;;;;;5078249;28;20414;-64
2022/03/06 00:59:33;;;;;;;41.05;14.93;;;;;;;;;;5077849;28;20052;-64
2022/03/06 01:02:00;;;;;;;53.92;19.20;;;;;;;;;;5077259;28;20052;-64
2022/03/06 01:04:27;;;;;;;49.53;17.40;;;;;;;;;;5078097;28;20075;-63
2022/03/06 01:06:55;;;;;;;31.50;8.35;;;;;;;;;;5078007;28;20029;-62
2022/03/06 01:09:26;;;;;;;42.72;13.88;;;;;;;;;;5077579;28;20024;-63
2022/03/06 01:11:54;;;;;;;43.15;15.77;;;;;;;;;;5077880;28;20021;-63
2022/03/06 01:14:21;;;;;;;47.75;17.60;;;;;;;;;;5077881;28;20129;-63
2022/03/06 01:16:49;;;;;;;43.72;15.43;;;;;;;;;;5077929;28;20078;-63
2022/03/06 01:19:16;;;;;;;64.82;30.48;;;;;;;;;;5077774;28;20020;-64
2022/03/06 01:21:45;;;;;;;60.83;30.20;;;;;;;;;;5077640;28;20100;-64
2022/03/06 01:24:12;;;;;;;57.05;24.08;;;;;;;;;;5077646;28;20023;-63
2022/03/06 01:26:40;;;;;;;45.38;15.45;;;;;;;;;;5077633;28;20021;-64
2022/03/06 01:29:07;;;;;;;47.63;18.35;;;;;;;;;;5076480;28;20325;-63
2022/03/06 01:31:35;;;;;;;42.78;15.05;;;;;;;;;;5077517;28;20023;-64
2022/03/06 01:34:05;;;;;;;31.38;7.88;;;;;;;;;;5077552;28;20048;-64
2022/03/06 01:36:33;;;;;;;27.98;5.60;;;;;;;;;;5077455;28;20303;-64
2022/03/06 01:39:00;;;;;;;32.95;6.30;;;;;;;;;;5077439;28;20028;-64
2022/03/06 01:41:28;;;;;;;35.17;6.30;;;;;;;;;;5077365;28;20417;-64
2022/03/06 01:43:56;;;;;;;26.73;5.50;;;;;;;;;;5077228;28;20082;-64
2022/03/06 01:46:23;;;;;;;33.38;6.25;;;;;;;;;;5077194;28;20093;-64
2022/03/06 01:48:50;;;;;;;29.20;6.25;;;;;;;;;;5077197;28;20099;-64
2022/03/06 01:51:18;;;;;;;35.40;8.68;;;;;;;;;;5077485;28;20027;-64
2022/03/06 01:53:46;;;;;;;23.88;6.53;;;;;;;;;;5077125;28;20029;-64
2022/03/06 01:56:14;;;;;;;13.80;4.82;;;;;;;;;;5077002;28;20429;-64
2022/03/06 01:58:41;;;;;;;23.40;6.00;;;;;;;;;;5076797;28;20063;-64
2022/03/06 02:01:08;;;;;;;22.27;4.82;;;;;;;;;;5076950;28;20028;-64
2022/03/06 02:03:35;;;;;;;27.88;5.10;;;;;;;;;;5076986;28;20028;-63
2022/03/06 02:06:05;;;;;;;29.83;5.78;;;;;;;;;;5076875;28;20016;-63
2022/03/06 02:08:33;;;;;;;24.60;5.72;;;;;;;;;;5076829;28;20020;-64
2022/03/06 02:11:01;;;;;;;31.10;7.57;;;;;;;;;;5075748;28;20032;-64
2022/03/06 02:13:31;;;;;;;35.38;8.40;;;;;;;;;;5076740;28;20020;-64
2022/03/06 02:15:59;;;;;;;27.73;7.70;;;;;;;;;;5077018;28;20024;-64
2022/03/06 02:18:26;;;;;;;20.00;5.38;;;;;;;;;;5076615;28;20024;-64
2022/03/06 02:20:54;;;;;;;34.58;5.95;;;;;;;;;;5075745;28;20044;-64
2022/03/06 02:23:21;;;;;;;23.38;5.50;;;;;;;;;;5076603;28;20078;-64
2022/03/06 02:25:49;;;;;;;28.33;10.02;;;;;;;;;;5076522;28;20417;-64
2022/03/06 02:28:16;;;;;;;30.52;8.43;;;;;;;;;;5075669;28;20453;-64
2022/03/06 02:30:44;;;;;;;18.60;7.15;;;;;;;;;;5076471;28;20025;-63
2022/03/06 02:33:13;;;;;;;23.88;6.90;;;;;;;;;;5075277;28;20029;-65
2022/03/06 02:35:41;;;;;;;29.73;8.75;;;;;;;;;;5076373;28;20020;-64
2022/03/06 02:38:09;;;;;;;23.80;7.05;;;;;;;;;;5076348;28;20074;-64
2022/03/06 02:40:40;;;;;;;23.60;7.97;;;;;;;;;;5076248;28;20028;-64
2022/03/06 02:43:08;;;;;;;43.30;19.45;;;;;;;;;;5076286;28;20329;-64
2022/03/06 02:45:38;;;;;;;26.65;10.75;;;;;;;;;;5076215;28;20096;-64
2022/03/06 02:48:06;;;;;;;39.80;11.60;;;;;;;;;;5076220;28;20039;-64
2022/03/06 02:50:36;;;;;;;38.08;11.38;;;;;;;;;;5076138;28;20021;-65
2022/03/06 02:53:06;;;;;;;27.40;11.43;;;;;;;;;;5076085;28;20024;-65
2022/03/06 02:55:33;;;;;;;38.97;13.38;;;;;;;;;;5075960;28;20028;-65
2022/03/06 02:57:59;;;;;;;36.42;14.68;;;;;;;;;;5075680;28;20088;-64
2022/03/06 03:00:27;;;;;;;93.45;37.15;;;;;;;;;;5075914;28;20048;-64
2022/03/06 03:02:55;;;;;;;40.10;17.70;;;;;;;;;;5076014;28;20017;-65
2022/03/06 03:05:23;;;;;;;47.85;16.00;;;;;;;;;;5074748;28;20021;-65
2022/03/06 03:07:51;;;;;;;40.60;15.25;;;;;;;;;;5075841;28;20056;-64
2022/03/06 03:10:20;;;;;;;44.03;18.35;;;;;;;;;;5075928;28;20036;-64
2022/03/06 03:12:47;;;;;;;42.47;16.48;;;;;;;;;;5075881;28;20029;-65
2022/03/06 03:15:15;;;;;;;42.45;15.40;;;;;;;;;;5075672;28;20028;-65
2022/03/06 03:17:43;;;;;;;52.97;18.83;;;;;;;;;;5075647;28;20104;-64
2022/03/06 03:20:11;;;;;;;54.17;20.90;;;;;;;;;;5074546;28;20078;-65
2022/03/06 03:22:39;;;;;;;50.75;22.08;;;;;;;;;;5074601;28;20024;-65
2022/03/06 03:25:07;;;;;;;43.70;17.73;;;;;;;;;;5075719;28;20056;-64
2022/03/06 03:27:34;;;;;;;44.60;17.85;;;;;;;;;;5075568;28;20024;-65
2022/03/06 03:30:03;;;;;;;49.95;18.80;;;;;;;;;;5075626;28;20421;-65
2022/03/06 03:32:30;;;;;;;35.70;12.60;;;;;;;;;;5077137;28;20094;-65
2022/03/06 03:34:58;;;;;;;40.47;14.57;;;;;;;;;;5078644;28;20082;-65
2022/03/06 03:37:25;;;;;;;37.20;13.75;;;;;;;;;;5079767;28;20024;-64
2022/03/06 03:39:53;;;;;;;31.90;10.52;;;;;;;;;;5079569;28;20453;-66
2022/03/06 03:42:20;;;;;;;36.08;12.25;;;;;;;;;;5079721;28;20358;-65
2022/03/06 03:44:48;;;;;;;33.42;10.85;;;;;;;;;;5079615;28;20016;-65
2022/03/06 03:47:18;;;;;;;34.00;11.35;;;;;;;;;;5079600;28;20025;-66
2022/03/06 03:49:46;;;;;;;40.65;11.00;;;;;;;;;;5079791;28;20028;-65
2022/03/06 03:52:13;;;;;;;50.97;17.92;;;;;;;;;;5079454;28;20032;-65
2022/03/06 03:54:44;;;;;;;49.35;16.90;;;;;;;;;;5078268;28;20021;-65
2022/03/06 03:57:13;;;;;;;36.42;12.43;;;;;;;;;;5078182;28;20028;-64
2022/03/06 03:59:40;;;;;;;43.88;15.27;;;;;;;;;;5079088;28;20043;-64
2022/03/06 04:02:07;;;;;;;43.63;14.48;;;;;;;;;;5078074;28;20025;-63
2022/03/06 04:04:35;;;;;;;32.70;12.25;;;;;;;;;;5079057;28;20024;-63
2022/03/06 04:07:03;;;;;;;36.78;11.75;;;;;;;;;;5077921;28;20017;-64
2022/03/06 04:09:30;;;;;;;37.85;12.60;;;;;;;;;;5079061;28;20025;-65
2022/03/06 04:11:58;;;;;;;35.28;12.90;;;;;;;;;;5079064;28;20028;-65
2022/03/06 04:14:25;;;;;;;31.45;11.80;;;;;;;;;;5077908;28;20016;-64
2022/03/06 04:16:53;;;;;;;45.53;10.65;;;;;;;;;;5077650;28;20070;-65
2022/03/06 04:19:20;;;;;;;25.85;6.43;;;;;;;;;;5078994;28;20021;-65
2022/03/06 04:21:48;;;;;;;36.80;9.07;;;;;;;;;;5077580;28;20086;-66
2022/03/06 04:24:16;;;;;;;35.33;10.65;;;;;;;;;;5078782;28;20024;-64
2022/03/06 04:26:43;;;;;;;40.75;11.63;;;;;;;;;;5078664;28;20479;-66
2022/03/06 04:29:11;;;;;;;35.17;13.68;;;;;;;;;;5078581;28;20078;-65
2022/03/06 04:31:42;;;;;;;36.45;14.15;;;;;;;;;;5078677;28;20020;-66
2022/03/06 04:34:10;;;;;;;32.85;11.60;;;;;;;;;;5078662;28;20074;-65
2022/03/06 04:36:37;;;;;;;29.48;9.20;;;;;;;;;;5077612;28;20067;-64
2022/03/06 04:39:05;;;;;;;33.63;9.35;;;;;;;;;;5078195;28;20031;-65
2022/03/06 04:41:33;;;;;;;35.95;9.32;;;;;;;;;;5077233;28;20062;-65
2022/03/06 04:44:00;;;;;;;32.22;10.15;;;;;;;;;;5076600;28;20031;-65
2022/03/06 04:46:28;;;;;;;31.23;9.50;;;;;;;;;;5078399;28;20025;-64
2022/03/06 04:48:56;;;;;;;35.03;11.07;;;;;;;;;;5078425;28;20028;-65
2022/03/06 04:51:23;;;;;;;32.38;8.10;;;;;;;;;;5077217;28;20360;-65
2022/03/06 04:53:51;;;;;;;30.35;7.43;;;;;;;;;;5077979;28;20034;-65
2022/03/06 04:56:19;;;;;;;32.80;6.30;;;;;;;;;;5077907;28;20035;-65
2022/03/06 04:58:45;;;;;;;21.08;6.50;;;;;;;;;;5078003;28;20048;-65
2022/03/06 05:01:12;;;;;;;40.20;9.98;;;;;;;;;;5078018;28;20028;-65
2022/03/06 05:03:40;;;;;;;36.63;9.57;;;;;;;;;;5077088;28;20024;-64
2022/03/06 05:06:08;;;;;;;41.08;12.43;;;;;;;;;;5078046;28;20027;-65
2022/03/06 05:08:35;;;;;;;38.92;11.10;;;;;;;;;;5077978;28;20024;-66
2022/03/06 05:11:03;;;;;;;40.97;15.65;;;;;;;;;;5077855;28;20036;-65
2022/03/06 05:13:30;;;;;;;53.95;19.92;;;;;;;;;;5077907;28;20024;-65
2022/03/06 05:15:58;;;;;;;68.43;22.05;;;;;;;;;;5076799;28;20390;-65
2022/03/06 05:18:26;;;;;;;54.35;9.55;;;;;;;;;;5076700;28;20042;-65
2022/03/06 05:20:53;;;;;;;35.50;11.30;;;;;;;;;;5077628;28;20024;-66
2022/03/06 05:23:21;;;;;;;39.42;10.25;;;;;;;;;;5077629;28;20360;-67
2022/03/06 05:25:49;;;;;;;34.92;8.60;;;;;;;;;;5076530;28;20076;-66
2022/03/06 05:28:17;;;;;;;29.33;7.57;;;;;;;;;;5077562;28;20017;-64
2022/03/06 05:30:44;;;;;;;27.95;6.45;;;;;;;;;;5076466;28;20021;-66
2022/03/06 05:33:11;;;;;;;29.65;6.18;;;;;;;;;;5077544;28;20448;-68
2022/03/06 05:35:39;;;;;;;34.17;6.10;;;;;;;;;;5077575;28;20021;-66
2022/03/06 05:38:07;;;;;;;22.35;5.72;;;;;;;;;;5077461;28;20448;-66
2022/03/06 05:40:35;;;;;;;31.52;6.90;;;;;;;;;;5076138;28;20120;-66
2022/03/06 05:43:02;;;;;;;20.73;5.95;;;;;;;;;;5077282;28;20024;-64
2022/03/06 05:45:30;;;;;;;32.78;8.27;;;;;;;;;;5077349;28;20028;-66
2022/03/06 05:47:57;;;;;;;33.85;7.63;;;;;;;;;;5077281;28;20403;-65
2022/03/06 05:50:25;;;;;;;35.15;6.07;;;;;;;;;;5076081;28;20066;-68
2022/03/06 05:52:53;;;;;;;32.58;6.38;;;;;;;;;;5077086;28;20056;-66
2022/03/06 05:55:20;;;;;;;36.15;8.85;;;;;;;;;;5075981;28;20032;-64
2022/03/06 06:03:38;;;;;;;34.42;4.75;;;;;;;;;;5076977;28;20055;-65
2022/03/06 06:06:05;;;;;;;37.10;6.45;;;;;;;;;;5076735;28;20016;-64
2022/03/06 06:08:33;;;;;;;29.42;4.40;;;;;;;;;;5076742;28;20024;-65
2022/03/06 06:11:01;;;;;;;28.08;4.90;;;;;;;;;;5075717;28;20024;-65
2022/03/06 06:13:28;;;;;;;39.17;5.78;;;;;;;;;;5076904;28;20028;-66
2022/03/06 06:15:57;;;;;;;33.50;5.20;;;;;;;;;;5075687;28;20448;-66
2022/03/06 06:18:27;;;;;;;39.75;8.07;;;;;;;;;;5076643;28;20028;-66
2022/03/06 06:20:54;;;;;;;38.65;6.85;;;;;;;;;;5076543;28;20024;-64
2022/03/06 06:23:22;;;;;;;31.40;6.82;;;;;;;;;;5075464;28;20345;-64
2022/03/06 06:25:49;;;;;;;40.85;6.88;;;;;;;;;;5076602;28;20055;-64
2022/03/06 06:28:17;;;;;;;37.15;6.13;;;;;;;;;;5076629;28;20429;-64
2022/03/06 06:30:44;;;;;;;36.00;6.70;;;;;;;;;;5076773;28;20032;-65
2022/03/06 06:33:12;;;;;;;53.72;16.02;;;;;;;;;;5075316;28;20044;-65
2022/03/06 06:35:39;;;;;;;31.65;8.82;;;;;;;;;;5076409;28;20448;-65
2022/03/06 06:38:07;;;;;;;31.33;6.60;;;;;;;;;;5076442;28;20437;-66
2022/03/06 06:40:34;;;;;;;31.95;5.82;;;;;;;;;;5076240;28;20028;-66
2022/03/06 06:43:02;;;;;;;34.47;7.13;;;;;;;;;;5075200;28;20025;-64
2022/03/06 06:45:30;;;;;;;49.90;11.68;;;;;;;;;;5076217;28;20073;-65
2022/03/06 06:47:58;;;;;;;30.45;7.43;;;;;;;;;;5076428;28;20410;-66
2022/03/06 06:50:26;;;;;;;32.10;6.75;;;;;;;;;;5076250;28;20334;-65
2022/03/06 06:52:53;;;;;;;27.08;5.53;;;;;;;;;;5076048;28;20024;-67
2022/03/06 06:55:21;;;;;;;32.47;7.93;;;;;;;;;;5076113;28;20110;-65
2022/03/06 06:57:48;;;;;;;36.25;5.63;;;;;;;;;;5076108;28;20028;-65
2022/03/06 07:00:16;;;;;;;24.75;3.85;;;;;;;;;;5075839;28;20476;-63
2022/03/06 07:02:46;;;;;;;23.70;3.65;;;;;;;;;;5076010;28;20108;-65
2022/03/06 07:05:14;;;;;;;31.35;5.28;;;;;;;;;;5074870;28;20364;-64
2022/03/06 07:07:41;;;;;;;26.02;4.65;;;;;;;;;;5075601;28;20032;-65
2022/03/06 07:10:09;;;;;;;17.85;3.25;;;;;;;;;;5075888;28;20031;-64
2022/03/06 07:12:48;;;;;;;29.20;4.75;;;;;;;;;;5075810;28;20108;-65
2022/03/06 07:15:16;;;;;;;23.65;4.35;;;;;;;;;;5075833;28;20059;-65
2022/03/06 07:17:43;;;;;;;23.27;4.20;;;;;;;;;;5074719;28;20025;-64
2022/03/06 07:20:11;;;;;;;23.55;3.92;;;;;;;;;;5075716;28;20031;-66
2022/03/06 07:22:38;;;;;;;28.13;6.55;;;;;;;;;;5075511;28;20317;-66
2022/03/06 07:25:06;;;;;;;28.98;3.63;;;;;;;;;;5075787;28;20019;-65
2022/03/06 07:27:34;;;;;;;30.42;3.95;;;;;;;;;;5075203;28;20021;-65
2022/03/06 07:30:02;;;;;;;22.25;4.22;;;;;;;;;;5075720;28;20340;-66
2022/03/06 07:32:29;;;;;;;24.00;4.07;;;;;;;;;;5075644;28;20025;-65
2022/03/06 07:34:57;;;;;;;20.90;3.20;;;;;;;;;;5075610;28;20036;-67
2022/03/06 07:37:24;;;;;;;20.50;5.00;;;;;;;;;;5074594;28;20116;-65
2022/03/06 07:39:52;;;;;;;20.05;2.97;;;;;;;;;;5075618;28;20306;-66
2022/03/06 07:42:19;;;;;;;18.27;3.05;;;;;;;;;;5074639;28;20020;-65
2022/03/06 07:44:47;;;;;;;18.80;2.90;;;;;;;;;;5075701;28;20039;-65
2022/03/06 07:47:14;;;;;;;22.90;4.68;;;;;;;;;;5075565;28;20017;-65
2022/03/06 07:49:41;;;;;;;16.35;4.25;;;;;;;;;;5075565;28;20244;-66
2022/03/06 07:52:09;;;;;;;21.77;6.45;;;;;;;;;;5075531;28;20024;-65
2022/03/06 07:54:36;;;;;;;19.25;2.83;;;;;;;;;;5074495;28;20104;-65
2022/03/06 07:57:04;;;;;;;31.00;5.65;;;;;;;;;;5075278;28;20044;-65
2022/03/06 07:59:31;;;;;;;25.50;5.30;;;;;;;;;;5074644;28;20049;-66
2022/03/06 08:01:57;;;;;;;21.65;4.15;;;;;;;;;;5075370;28;20028;-64
2022/03/06 08:04:25;;;;;;;30.67;5.18;;;;;;;;;;5074322;28;20027;-65
2022/03/06 08:06:52;;;;;;;17.48;4.13;;;;;;;;;;5074337;28;20440;-66
2022/03/06 08:09:20;;;;;;;27.42;3.85;;;;;;;;;;5075179;28;20033;-65
2022/03/06 08:11:48;;;;;;;15.70;3.33;;;;;;;;;;5075152;28;20107;-65
2022/03/06 08:14:15;;;;;;;15.65;3.35;;;;;;;;;;5074684;28;20074;-65
2022/03/06 08:16:43;;;;;;;22.63;3.45;;;;;;;;;;5074599;28;20368;-66
2022/03/06 08:19:10;;;;;;;24.23;3.90;;;;;;;;;;5074898;28;20024;-65
2022/03/06 08:21:39;;;;;;;16.67;4.10;;;;;;;;;;5077448;28;20075;-65
2022/03/06 08:24:06;;;;;;;20.92;4.75;;;;;;;;;;5077571;28;20367;-65
2022/03/06 08:26:34;;;;;;;16.58;4.57;;;;;;;;;;5078559;28;20016;-65
2022/03/06 08:29:01;;;;;;;24.77;8.05;;;;;;;;;;5077374;28;20027;-65
2022/03/06 08:31:29;;;;;;;19.95;2.90;;;;;;;;;;5078473;28;20329;-65
2022/03/06 08:33:57;;;;;;;15.40;3.47;;;;;;;;;;5078311;28;20082;-64
2022/03/06 08:36:24;;;;;;;17.05;3.25;;;;;;;;;;5078347;28;20027;-66
2022/03/06 08:38:52;;;;;;;11.63;2.65;;;;;;;;;;5076994;28;20105;-67
2022/03/06 08:41:19;;;;;;;17.95;4.10;;;;;;;;;;5076697;28;20028;-66
2022/03/06 08:43:47;;;;;;;18.85;4.75;;;;;;;;;;5078093;28;20017;-65
2022/03/06 08:46:14;;;;;;;22.15;6.50;;;;;;;;;;5078185;28;20041;-66
2022/03/06 08:48:41;;;;;;;20.77;5.28;;;;;;;;;;5078114;28;20020;-66
2022/03/06 08:51:09;;;;;;;21.50;5.20;;;;;;;;;;5077933;28;20048;-66
2022/03/06 08:53:37;;;;;;;24.23;7.47;;;;;;;;;;5077814;28;20032;-64
2022/03/06 08:56:05;;;;;;;16.98;5.15;;;;;;;;;;5076805;28;20422;-67
2022/03/06 08:58:31;;;;;;;21.25;7.55;;;;;;;;;;5078078;28;20071;-67
2022/03/06 09:00:58;;;;;;;18.80;6.60;;;;;;;;;;5077989;28;20086;-65
2022/03/06 09:03:26;;;;;;;16.52;4.00;;;;;;;;;;5076959;28;20055;-66
2022/03/06 09:05:53;;;;;;;14.60;3.88;;;;;;;;;;5077890;28;20032;-65
2022/03/06 09:08:22;;;;;;;12.68;4.10;;;;;;;;;;5077836;28;20044;-66
2022/03/06 09:10:52;;;;;;;17.88;4.28;;;;;;;;;;5077901;28;20043;-66
2022/03/06 09:13:19;;;;;;;12.25;3.63;;;;;;;;;;5077773;28;20035;-66
2022/03/06 09:15:47;;;;;;;13.60;3.53;;;;;;;;;;5077921;28;20417;-65
2022/03/06 09:18:13;;;;;;;14.43;4.55;;;;;;;;;;5077694;28;20025;-65
2022/03/06 09:20:41;;;;;;;36.30;9.85;;;;;;;;;;5077652;28;20078;-66
2022/03/06 09:23:09;;;;;;;22.55;6.65;;;;;;;;;;5076583;28;20016;-66
2022/03/06 09:25:37;;;;;;;13.30;3.55;;;;;;;;;;5077686;28;20017;-67
2022/03/06 09:28:05;;;;;;;14.25;3.67;;;;;;;;;;5076515;28;20047;-65
2022/03/06 09:30:33;;;;;;;22.33;5.63;;;;;;;;;;5077112;28;20024;-65
2022/03/06 09:33:00;;;;;;;16.88;4.80;;;;;;;;;;5077456;28;20035;-65
2022/03/06 09:35:28;;;;;;;20.75;4.30;;;;;;;;;;5076276;28;20066;-66
2022/03/06 09:37:56;;;;;;;16.95;4.50;;;;;;;;;;5077405;28;20020;-66
2022/03/06 09:40:24;;;;;;;17.40;4.40;;;;;;;;;;5076922;28;20020;-68
2022/03/06 09:42:51;;;;;;;19.25;5.13;;;;;;;;;;5077193;28;20036;-66
2022/03/06 09:45:22;;;;;;;24.05;5.70;;;;;;;;;;5077395;28;20020;-65
2022/03/06 09:47:51;;;;;;;20.13;5.78;;;;;;;;;;5077328;28;20405;-66
2022/03/06 09:50:19;;;;;;;22.42;5.85;;;;;;;;;;5077037;28;20402;-65
2022/03/06 09:52:46;;;;;;;18.05;5.78;;;;;;;;;;5077074;28;20025;-66
2022/03/06 09:55:14;;;;;;;18.95;6.32;;;;;;;;;;5076983;28;20491;-67
2022/03/06 09:57:42;;;;;;;22.63;6.80;;;;;;;;;;5076533;28;20476;-66
2022/03/06 10:00:10;;;;;;;26.58;7.68;;;;;;;;;;5075530;28;20053;-66
2022/03/06 10:02:55;;;;;;;23.70;7.93;;;;;;;;;;5076912;28;20048;-66
2022/03/06 10:05:38;;;;;;;33.05;9.45;;;;;;;;;;5076660;28;20100;-65
2022/03/06 10:08:26;;;;;;;33.58;9.85;;;;;;;;;;5076492;28;20021;-66
2022/03/06 10:10:58;;;;;;;32.08;10.00;;;;;;;;;;5076373;28;20032;-69
2022/03/06 10:13:38;;;;;;;37.83;10.93;;;;;;;;;;5076508;28;20033;-66
2022/03/06 10:16:17;;;;;;;35.53;12.68;;;;;;;;;;5076429;28;20017;-66
2022/03/06 10:18:53;;;;;;;33.35;9.60;;;;;;;;;;5074261;28;20044;-65
2022/03/06 10:21:25;;;;;;;33.38;10.02;;;;;;;;;;5074515;28;20044;-65
2022/03/06 10:23:54;;;;;;;32.28;9.27;;;;;;;;;;5074532;28;20048;-66
2022/03/06 10:26:24;;;;;;;21.40;8.25;;;;;;;;;;5074735;28;20031;-65
2022/03/06 10:28:58;;;;;;;30.23;9.25;;;;;;;;;;5074657;28;20098;-66
2022/03/06 10:31:27;;;;;;;30.88;9.48;;;;;;;;;;5057839;28;20059;-65
2022/03/06 10:34:08;;;;;;;30.83;9.93;;;;;;;;;;5074671;28;20032;-67
2022/03/06 10:36:41;;;;;;;30.42;9.98;;;;;;;;;;5057669;28;20103;-67
2022/03/06 10:39:20;;;;;;;26.30;10.48;;;;;;;;;;5074518;28;20117;-66
2022/03/06 10:41:54;;;;;;;99.95;38.10;;;;;;;;;;5073685;28;20029;-66
2022/03/06 10:44:23;;;;;;;34.30;10.93;;;;;;;;;;5074243;28;20036;-67
2022/03/06 10:47:04;;;;;;;41.42;10.23;;;;;;;;;;5074354;28;20081;-67
2022/03/06 10:49:32;;;;;;;32.45;10.35;;;;;;;;;;5063007;28;20029;-66
2022/03/06 10:52:20;;;;;;;35.63;11.85;;;;;;;;;;5075951;28;20024;-66
2022/03/06 10:54:58;;;;;;;39.58;15.82;;;;;;;;;;5076121;28;20017;-65
2022/03/06 10:57:25;;;;;;;36.25;11.63;;;;;;;;;;5076069;28;20025;-67
2022/03/06 10:59:52;;;;;;;32.38;11.63;;;;;;;;;;5075853;28;20044;-67
2022/03/06 11:02:24;;;;;;;36.53;12.52;;;;;;;;;;5075041;28;20391;-65
2022/03/06 11:04:53;;;;;;;33.78;12.80;;;;;;;;;;5076388;28;20020;-64
2022/03/06 11:07:21;;;;;;;28.20;11.05;;;;;;;;;;5076077;28;20360;-66
2022/03/06 11:09:50;;;;;;;31.00;11.02;;;;;;;;;;5074926;28;20321;-66
2022/03/06 11:12:17;;;;;;;28.77;11.77;;;;;;;;;;5075995;28;20024;-66
2022/03/06 11:14:45;;;;;;;36.03;12.30;;;;;;;;;;5075887;28;20092;-66
2022/03/06 11:17:13;;;;;;;31.10;12.93;;;;;;;;;;5075708;28;20028;-66
2022/03/06 11:19:40;;;;;;;55.85;18.65;;;;;;;;;;5074333;28;20032;-67
2022/03/06 11:22:26;;;;;;;47.95;21.45;;;;;;;;;;5076090;28;20119;-66
2022/03/06 11:24:58;;;;;;;45.63;18.23;;;;;;;;;;5075027;28;20021;-69
2022/03/06 11:27:30;;;;;;;36.05;16.48;;;;;;;;;;5075948;28;20047;-67
2022/03/06 11:30:18;;;;;;;39.70;15.55;;;;;;;;;;5076085;28;20099;-67
2022/03/06 11:32:48;;;;;;;49.08;20.55;;;;;;;;;;5075883;28;20031;-67
2022/03/06 11:35:16;;;;;;;49.05;18.77;;;;;;;;;;5075779;28;20028;-67
2022/03/06 11:38:09;;;;;;;35.70;16.10;;;;;;;;;;5075802;28;20052;-67
2022/03/06 11:40:38;;;;;;;39.60;15.40;;;;;;;;;;5075302;28;20036;-69
2022/03/06 11:43:06;;;;;;;45.05;15.65;;;;;;;;;;5075753;28;20421;-69
2022/03/06 11:45:53;;;;;;;44.60;16.40;;;;;;;;;;5075738;28;20025;-67
2022/03/06 11:48:28;;;;;;;36.25;14.32;;;;;;;;;;5074379;28;20051;-67
2022/03/06 11:51:22;;;;;;;42.95;14.85;;;;;;;;;;5075879;28;20095;-67
2022/03/06 11:54:13;;;;;;;43.58;14.38;;;;;;;;;;5075539;28;20437;-66
2022/03/06 11:56:51;;;;;;;39.30;13.68;;;;;;;;;;5078336;28;20035;-67
2022/03/06 11:59:18;;;;;;;44.33;13.85;;;;;;;;;;5078065;28;20428;-68
2022/03/06 12:01:45;;;;;;;44.20;12.57;;;;;;;;;;5060704;28;20425;-67
2022/03/06 12:04:15;;;;;;;46.63;13.13;;;;;;;;;;5077201;28;20048;-67
2022/03/06 12:06:47;;;;;;;37.83;12.48;;;;;;;;;;5077159;28;20028;-67
2022/03/06 12:09:21;;;;;;;39.05;12.23;;;;;;;;;;5077095;28;20100;-67
2022/03/06 12:11:49;;;;;;;38.25;12.75;;;;;;;;;;5060257;28;20082;-67
2022/03/06 12:14:20;;;;;;;46.95;11.95;;;;;;;;;;5076724;28;20059;-66
2022/03/06 12:17:06;;;;;;;43.97;12.20;;;;;;;;;;5077287;28;20480;-67
2022/03/06 12:19:41;;;;;;;39.85;11.60;;;;;;;;;;5076995;28;20437;-69
2022/03/06 12:22:19;;;;;;;38.13;11.30;;;;;;;;;;5076886;28;20043;-67
2022/03/06 12:24:48;;;;;;;50.45;11.85;;;;;;;;;;5076916;28;20137;-67
2022/03/06 12:27:25;;;;;;;41.33;11.50;;;;;;;;;;5077291;28;20028;-67
2022/03/06 12:30:02;;;;;;;40.25;12.18;;;;;;;;;;5077115;28;20036;-66
2022/03/06 12:32:37;;;;;;;43.22;12.32;;;;;;;;;;5078796;28;20020;-67
2022/03/06 12:35:09;;;;;;;49.53;14.07;;;;;;;;;;5078683;28;20024;-66
2022/03/06 12:38:00;;;;;;;49.97;14.00;;;;;;;;;;5078729;28;20024;-66
2022/03/06 12:40:29;;;;;;;53.10;13.85;;;;;;;;;;5078008;28;20048;-68
2022/03/06 12:43:07;;;;;;;46.08;12.52;;;;;;;;;;5078492;28;20365;-66
2022/03/06 12:45:36;;;;;;;45.15;12.00;;;;;;;;;;5078367;28;20023;-66
2022/03/06 12:48:04;;;;;;;47.05;12.13;;;;;;;;;;5077289;28;20356;-66
2022/03/06 12:50:32;;;;;;;44.95;12.60;;;;;;;;;;5078170;28;20028;-67
2022/03/06 12:53:00;;;;;;;52.35;15.77;;;;;;;;;;5078254;28;20325;-66
2022/03/06 12:55:27;;;;;;;58.65;18.45;;;;;;;;;;5078250;28;20025;-67
2022/03/06 12:57:55;;;;;;;50.83;17.00;;;;;;;;;;5078081;28;20078;-66
2022/03/06 13:00:27;;;;;;;63.55;17.73;;;;;;;;;;5077074;28;20079;-66
2022/03/06 13:02:56;;;;;;;51.20;18.52;;;;;;;;;;5078050;28;20012;-67
2022/03/06 13:05:24;;;;;;;52.53;20.02;;;;;;;;;;5077136;28;20418;-67
2022/03/06 13:07:52;;;;;;;54.83;19.63;;;;;;;;;;5078116;28;20325;-66
2022/03/06 13:10:22;;;;;;;63.13;20.30;;;;;;;;;;5078001;28;20033;-66
2022/03/06 13:12:53;;;;;;;53.22;20.27;;;;;;;;;;5076774;28;20131;-67
2022/03/06 13:15:24;;;;;;;57.65;21.00;;;;;;;;;;5077913;28;20024;-67
2022/03/06 13:18:02;;;;;;;60.53;22.77;;;;;;;;;;5076969;28;20376;-67
2022/03/06 13:20:34;;;;;;;62.95;23.60;;;;;;;;;;5078056;28;20028;-66
2022/03/06 13:23:05;;;;;;;66.28;23.38;;;;;;;;;;5077783;28;20035;-66
2022/03/06 13:25:35;;;;;;;66.75;27.25;;;;;;;;;;5076334;28;20024;-68
2022/03/06 13:28:02;;;;;;;65.00;23.45;;;;;;;;;;5077887;28;20054;-67
2022/03/06 13:30:36;;;;;;;68.00;22.75;;;;;;;;;;5077982;28;20036;-66
2022/03/06 13:33:04;;;;;;;68.30;22.52;;;;;;;;;;5077657;28;20028;-66
2022/03/06 13:35:35;;;;;;;65.45;22.02;;;;;;;;;;5076573;28;20028;-66
2022/03/06 13:38:36;;;;;;;58.78;22.35;;;;;;;;;;5077636;28;20055;-68
2022/03/06 13:41:16;;;;;;;62.75;20.38;;;;;;;;;;5075487;28;20025;-66
2022/03/06 13:43:47;;;;;;;66.68;23.98;;;;;;;;;;5075560;28;20520;-68
2022/03/06 13:46:16;;;;;;;59.78;21.25;;;;;;;;;;5075384;28;20115;-66
2022/03/06 13:48:43;;;;;;;55.75;19.85;;;;;;;;;;5075356;28;20036;-67
2022/03/06 13:51:21;;;;;;;67.07;21.73;;;;;;;;;;5075385;28;20070;-66
2022/03/06 13:53:55;;;;;;;61.05;20.17;;;;;;;;;;5075374;28;20028;-67
2022/03/06 13:56:37;;;;;;;54.58;20.00;;;;;;;;;;5075213;28;20052;-67
2022/03/06 13:59:08;;;;;;;63.13;20.70;;;;;;;;;;5075051;28;20041;-67
2022/03/06 14:01:34;;;;;;;58.13;19.67;;;;;;;;;;5075105;28;20047;-66
2022/03/06 14:04:06;;;;;;;52.38;18.42;;;;;;;;;;5058320;28;20418;-67
2022/03/06 14:06:40;;;;;;;52.45;18.20;;;;;;;;;;5075069;28;20025;-67
2022/03/06 14:09:23;;;;;;;54.50;18.40;;;;;;;;;;5058237;28;20299;-68
2022/03/06 14:11:51;;;;;;;50.58;18.05;;;;;;;;;;5058191;28;20123;-67
2022/03/06 14:14:19;;;;;;;57.72;17.95;;;;;;;;;;5075061;28;20036;-67
2022/03/06 14:16:46;;;;;;;50.22;19.00;;;;;;;;;;5075700;28;20028;-66
2022/03/06 14:19:32;;;;;;;50.63;18.80;;;;;;;;;;5076719;28;20021;-66
2022/03/06 14:22:16;;;;;;;68.43;19.48;;;;;;;;;;5076011;28;20374;-66
2022/03/06 14:25:07;;;;;;;75.13;21.60;;;;;;;;;;5075117;28;20033;-68
2022/03/06 14:27:35;;;;;;;90.88;20.63;;;;;;;;;;5038416;28;20029;-68
2022/03/06 14:30:03;;;;;;;81.70;21.58;;;;;;;;;;5054817;28;20108;-68
2022/03/06 14:32:31;;;;;;;87.53;21.70;;;;;;;;;;5054510;28;20037;-68
2022/03/06 14:34:59;;;;;;;90.50;23.25;;;;;;;;;;5054404;28;20191;-68
2022/03/06 14:37:26;;;;;;;81.63;22.35;;;;;;;;;;5054558;28;20029;-67
2022/03/06 14:39:54;;;;;;;77.38;25.55;;;;;;;;;;5054213;28;20141;-67
2022/03/06 14:42:22;;;;;;;95.97;28.50;;;;;;;;;;5054021;28;20086;-66